sensor_id;sensor_type;location;lat;lon;timestamp;P1;durP1;ratioP1;P2;durP2;ratioP2
40248;SDS011;25969;49.970;11.062;2023-03-04T05:08:17;19.17;;;8.27;;
40248;SDS011;25969;49.970;11.062;2023-03-04T05:18:18;21.60;;;8.80;;
40248;SDS011;25969;49.970;11.062;2023-03-04T05:28:20;26.73;;;9.27;;
40248;SDS011;25969;49.970;11.062;2023-03-04T05:38:21;17.07;;;8.33;;
40248;SDS011;25969;49.970;11.062;2023-03-04T05:48:22;24.97;;;10.17;;
40248;SDS011;25969;49.970;11.062;2023-03-04T05:58:23;23.40;;;10.00;;
40248;SDS011;25969;49.970;11.062;2023-03-04T06:08:25;27.40;;;10.73;;
40248;SDS011;25969;49.970;11.062;2023-03-04T06:18:27;27.40;;;11.07;;
40248;SDS011;25969;49.970;11.062;2023-03-04T06:28:28;27.30;;;11.60;;
40248;SDS011;25969;49.970;11.062;2023-03-04T06:38:29;25.97;;;11.97;;
40248;SDS011;25969;49.970;11.062;2023-03-04T06:48:30;27.97;;;11.57;;
40248;SDS011;25969;49.970;11.062;2023-03-04T06:58:31;28.67;;;10.90;;
40248;SDS011;25969;49.970;11.062;2023-03-04T07:08:31;29.17;;;12.27;;
40248;SDS011;25969;49.970;11.062;2023-03-04T07:18:32;26.77;;;11.70;;
40248;SDS011;25969;49.970;11.062;2023-03-04T07:28:34;33.17;;;11.73;;
40248;SDS011;25969;49.970;11.062;2023-03-04T07:38:35;29.63;;;11.90;;
40248;SDS011;25969;49.970;11.062;2023-03-04T07:48:36;27.30;;;12.33;;
40248;SDS011;25969;49.970;11.062;2023-03-04T07:58:37;28.33;;;12.37;;
40248;SDS011;25969;49.970;11.062;2023-03-04T08:08:38;26.73;;;11.27;;
40248;SDS011;25969;49.970;11.062;2023-03-04T08:18:39;25.50;;;10.30;;
40248;SDS011;25969;49.970;11.062;2023-03-04T08:28:41;24.87;;;11.63;;
40248;SDS011;25969;49.970;11.062;2023-03-04T08:38:42;35.57;;;14.97;;
40248;SDS011;25969;49.970;11.062;2023-03-04T08:48:43;31.53;;;13.13;;
40248;SDS011;25969;49.970;11.062;2023-03-04T08:58:43;35.53;;;13.77;;
40248;SDS011;25969;49.970;11.062;2023-03-04T09:08:44;28.37;;;12.20;;
40248;SDS011;25969;49.970;11.062;2023-03-04T09:18:45;30.87;;;12.70;;
40248;SDS011;25969;49.970;11.062;2023-03-04T09:28:48;29.03;;;11.67;;
40248;SDS011;25969;49.970;11.062;2023-03-04T09:38:50;26.83;;;11.60;;
40248;SDS011;25969;49.970;11.062;2023-03-04T09:48:51;25.90;;;11.03;;
40248;SDS011;25969;49.970;11.062;2023-03-04T10:09:24;22.43;;;10.50;;
40248;SDS011;25969;49.970;11.062;2023-03-04T10:29:50;26.30;;;10.13;;
40248;SDS011;25969;49.970;11.062;2023-03-04T10:39:51;21.47;;;9.67;;
40248;SDS011;25969;49.970;11.062;2023-03-04T10:49:56;22.77;;;9.80;;
40248;SDS011;25969;49.970;11.062;2023-03-04T11:00:41;26.43;;;9.67;;
40248;SDS011;25969;49.970;11.062;2023-03-04T11:20:40;32.43;;;10.93;;
40248;SDS011;25969;49.970;11.062;2023-03-04T11:51:19;18.17;;;8.67;;
40248;SDS011;25969;49.970;11.062;2023-03-04T12:32:26;20.43;;;8.77;;
40248;SDS011;25969;49.970;11.062;2023-03-04T12:42:44;23.30;;;8.87;;
40248;SDS011;25969;49.970;11.062;2023-03-04T13:03:34;29.10;;;10.40;;
40248;SDS011;25969;49.970;11.062;2023-03-04T13:14:03;20.47;;;8.87;;
40248;SDS011;25969;49.970;11.062;2023-03-04T13:24:41;21.83;;;7.63;;
40248;SDS011;25969;49.970;11.062;2023-03-04T13:54:51;20.13;;;7.87;;
40248;SDS011;25969;49.970;11.062;2023-03-04T14:05:30;18.47;;;7.50;;
40248;SDS011;25969;49.970;11.062;2023-03-04T14:15:31;19.23;;;6.83;;
40248;SDS011;25969;49.970;11.062;2023-03-04T14:25:34;19.60;;;6.97;;
40248;SDS011;25969;49.970;11.062;2023-03-04T14:35:35;21.47;;;7.63;;
40248;SDS011;25969;49.970;11.062;2023-03-04T14:45:38;16.70;;;5.47;;
40248;SDS011;25969;49.970;11.062;2023-03-04T14:56:03;17.67;;;6.17;;
40248;SDS011;25969;49.970;11.062;2023-03-04T15:16:19;13.40;;;5.13;;
40248;SDS011;25969;49.970;11.062;2023-03-04T15:26:22;13.17;;;5.23;;
40248;SDS011;25969;49.970;11.062;2023-03-04T15:36:23;12.73;;;4.80;;
40248;SDS011;25969;49.970;11.062;2023-03-04T15:46:24;14.27;;;5.57;;
40248;SDS011;25969;49.970;11.062;2023-03-04T15:56:26;13.13;;;4.27;;
40248;SDS011;25969;49.970;11.062;2023-03-04T16:06:29;46.33;;;13.97;;
40248;SDS011;25969;49.970;11.062;2023-03-04T16:16:31;12.93;;;4.87;;
40248;SDS011;25969;49.970;11.062;2023-03-04T16:26:32;17.57;;;6.40;;
40248;SDS011;25969;49.970;11.062;2023-03-04T16:36:33;35.27;;;10.57;;
40248;SDS011;25969;49.970;11.062;2023-03-04T16:46:34;28.27;;;10.53;;
40248;SDS011;25969;49.970;11.062;2023-03-04T16:56:35;24.13;;;8.23;;
40248;SDS011;25969;49.970;11.062;2023-03-04T17:06:36;23.67;;;8.10;;
40248;SDS011;25969;49.970;11.062;2023-03-04T17:16:37;47.93;;;15.00;;
40248;SDS011;25969;49.970;11.062;2023-03-04T17:26:38;18.30;;;6.77;;
40248;SDS011;25969;49.970;11.062;2023-03-04T17:36:39;14.40;;;5.43;;
40248;SDS011;25969;49.970;11.062;2023-03-04T17:46:40;14.07;;;5.17;;
40248;SDS011;25969;49.970;11.062;2023-03-04T17:56:40;16.87;;;4.90;;
40248;SDS011;25969;49.970;11.062;2023-03-04T18:06:43;16.20;;;5.87;;
40248;SDS011;25969;49.970;11.062;2023-03-04T18:16:45;16.67;;;5.70;;
40248;SDS011;25969;49.970;11.062;2023-03-04T18:26:46;12.20;;;4.90;;
40248;SDS011;25969;49.970;11.062;2023-03-04T18:36:47;13.93;;;5.13;;
40248;SDS011;25969;49.970;11.062;2023-03-04T18:46:50;15.30;;;6.13;;
40248;SDS011;25969;49.970;11.062;2023-03-04T18:56:55;16.30;;;6.10;;
40248;SDS011;25969;49.970;11.062;2023-03-04T19:06:58;18.20;;;7.57;;
40248;SDS011;25969;49.970;11.062;2023-03-04T19:16:59;25.87;;;7.20;;
40248;SDS011;25969;49.970;11.062;2023-03-04T19:27:00;24.83;;;7.63;;
40248;SDS011;25969;49.970;11.062;2023-03-04T19:37:01;28.47;;;11.10;;
40248;SDS011;25969;49.970;11.062;2023-03-04T19:47:02;32.07;;;10.73;;
40248;SDS011;25969;49.970;11.062;2023-03-04T19:57:03;66.03;;;21.00;;
40248;SDS011;25969;49.970;11.062;2023-03-04T20:07:04;41.37;;;16.53;;
40248;SDS011;25969;49.970;11.062;2023-03-04T20:17:05;57.10;;;16.47;;
40248;SDS011;25969;49.970;11.062;2023-03-04T20:27:06;31.70;;;13.17;;
40248;SDS011;25969;49.970;11.062;2023-03-04T20:37:07;33.07;;;12.50;;
40248;SDS011;25969;49.970;11.062;2023-03-04T20:47:07;38.50;;;11.93;;
40248;SDS011;25969;49.970;11.062;2023-03-04T20:57:09;25.83;;;11.23;;
40248;SDS011;25969;49.970;11.062;2023-03-04T21:07:10;37.03;;;12.97;;
40248;SDS011;25969;49.970;11.062;2023-03-04T21:17:11;37.30;;;16.23;;
40248;SDS011;25969;49.970;11.062;2023-03-04T21:27:12;31.97;;;12.53;;
40248;SDS011;25969;49.970;11.062;2023-03-04T21:37:15;24.70;;;10.43;;
40248;SDS011;25969;49.970;11.062;2023-03-04T21:47:20;29.97;;;10.70;;
40248;SDS011;25969;49.970;11.062;2023-03-04T21:57:21;40.07;;;14.20;;
40248;SDS011;25969;49.970;11.062;2023-03-04T22:07:22;36.73;;;12.33;;
40248;SDS011;25969;49.970;11.062;2023-03-04T22:17:23;38.73;;;13.20;;
40248;SDS011;25969;49.970;11.062;2023-03-04T22:27:23;53.73;;;16.87;;
40248;SDS011;25969;49.970;11.062;2023-03-04T22:37:24;28.20;;;11.00;;
40248;SDS011;25969;49.970;11.062;2023-03-04T22:47:25;33.17;;;10.70;;
40248;SDS011;25969;49.970;11.062;2023-03-04T22:57:26;25.23;;;10.77;;
